createdAt,value
2022-08-10T00:03:00.467Z,96185.75
2022-08-10T00:06:03.689Z,96186.19
2022-08-10T00:09:05.419Z,96184.31
2022-08-10T00:12:07.224Z,96184.38
2022-08-10T00:15:09.686Z,96195.94
2022-08-10T00:18:11.346Z,96189.19
2022-08-10T00:21:34.373Z,96188.50
2022-08-10T00:24:39.117Z,96187.53
2022-08-10T00:27:52.231Z,96183.59
2022-08-10T00:31:04.064Z,96186.50
2022-08-10T00:34:05.709Z,96195.38
2022-08-10T00:37:08.753Z,96186.44
2022-08-10T00:40:11.242Z,96186.44
2022-08-10T00:43:12.917Z,96189.25
2022-08-10T00:46:14.658Z,96191.91
2022-08-10T00:49:16.417Z,96187.16
2022-08-10T00:52:20.451Z,96184.72
2022-08-10T00:55:22.166Z,96188.50
2022-08-10T00:58:23.817Z,96184.78
2022-08-10T01:02:10.741Z,96184.66
2022-08-10T01:04:59.592Z,96183.38
2022-08-10T01:08:20.582Z,96182.13
2022-08-10T01:12:31.388Z,96186.00
2022-08-10T01:14:55.341Z,96185.81
2022-08-10T01:18:00.784Z,96178.72
2022-08-10T01:21:31.005Z,96178.81
2022-08-10T01:24:45.370Z,96178.34
2022-08-10T01:27:53.943Z,96183.97
2022-08-10T01:31:00.121Z,96189.91
2022-08-10T01:34:03.733Z,96184.28
2022-08-10T01:37:08.153Z,96180.88
2022-08-10T01:40:10.719Z,96183.31
2022-08-10T01:43:16.187Z,96190.72
2022-08-10T01:46:19.454Z,96186.78
2022-08-10T01:49:22.377Z,96186.94
2022-08-10T01:52:25.811Z,96181.84
2022-08-10T01:55:28.258Z,96186.41
2022-08-10T01:58:31.081Z,96188.16
2022-08-10T02:01:37.915Z,96183.03
2022-08-10T02:04:41.612Z,96188.41
2022-08-10T02:07:44.028Z,96188.78
2022-08-10T02:10:46.428Z,96186.06
2022-08-10T02:13:48.210Z,96190.53
2022-08-10T02:16:51.947Z,96189.75
2022-08-10T02:19:54.347Z,96194.81
2022-08-10T02:22:56.791Z,96196.00
2022-08-10T02:26:00.325Z,96188.56
2022-08-10T02:29:02.260Z,96197.03
2022-08-10T02:32:06.518Z,96200.81
2022-08-10T02:35:18.621Z,96196.03
2022-08-10T02:38:59.235Z,96198.81
2022-08-10T02:42:18.794Z,96191.69
2022-08-10T02:45:29.279Z,96190.88
2022-08-10T02:48:37.597Z,96192.38
2022-08-10T02:52:06.206Z,96192.81
2022-08-10T02:55:17.025Z,96182.63
2022-08-10T02:58:22.746Z,96183.31
2022-08-10T03:01:28.758Z,96190.19
2022-08-10T03:04:56.203Z,96188.88
2022-08-10T03:08:00.042Z,96184.22
2022-08-10T03:11:03.507Z,96182.66
2022-08-10T03:14:06.659Z,96177.94
2022-08-10T03:17:09.305Z,96179.13
2022-08-10T03:20:37.686Z,96183.97
2022-08-10T03:23:34.932Z,96181.53
2022-08-10T03:26:37.287Z,96178.81
2022-08-10T03:30:30.001Z,96183.19
2022-08-10T03:33:02.650Z,96179.91
2022-08-10T03:36:44.155Z,96182.53
2022-08-10T03:39:28.148Z,96191.56
2022-08-10T03:42:31.375Z,96183.78
2022-08-10T03:45:54.537Z,96182.34
2022-08-10T03:48:57.851Z,96180.13
2022-08-10T03:52:04.244Z,96177.88
2022-08-10T03:55:06.068Z,96181.97
2022-08-10T03:58:07.967Z,96186.06
2022-08-10T04:01:10.058Z,96189.72
2022-08-10T04:04:12.879Z,96189.00
2022-08-10T04:07:18.444Z,96186.75
2022-08-10T04:10:20.097Z,96177.53
2022-08-10T04:13:21.730Z,96188.19
2022-08-10T04:16:23.343Z,96190.56
2022-08-10T04:19:25.512Z,96190.06
2022-08-10T04:22:29.063Z,96189.09
2022-08-10T04:25:30.913Z,96193.81
2022-08-10T04:28:33.000Z,96195.78
2022-08-10T04:31:36.112Z,96188.75
2022-08-10T04:34:40.625Z,96189.56
2022-08-10T04:37:46.851Z,96183.50
2022-08-10T04:40:49.544Z,96186.53
2022-08-10T04:43:51.224Z,96190.16
2022-08-10T04:46:57.810Z,96181.78
2022-08-10T04:50:00.994Z,96195.75
2022-08-10T04:53:05.488Z,96197.72
2022-08-10T04:56:07.450Z,96196.50
2022-08-10T04:59:09.844Z,96197.13
2022-08-10T05:02:22.415Z,96200.31
2022-08-10T05:05:33.209Z,96206.50
2022-08-10T05:08:36.256Z,96199.53
2022-08-10T05:11:37.951Z,96200.16
2022-08-10T05:14:39.617Z,96197.66
2022-08-10T05:18:08.726Z,96195.94
2022-08-10T05:21:03.898Z,96190.19
2022-08-10T05:24:07.443Z,96196.56
2022-08-10T05:27:09.912Z,96194.63
2022-08-10T05:30:13.373Z,96197.53
2022-08-10T05:33:15.038Z,96201.59
2022-08-10T05:36:17.256Z,96200.41
2022-08-10T05:39:25.230Z,96199.63
2022-08-10T05:42:32.412Z,96197.19
2022-08-10T05:45:34.122Z,96197.09
2022-08-10T05:49:00.522Z,96199.97
2022-08-10T05:52:03.667Z,96200.69
2022-08-10T05:55:07.572Z,96203.94
2022-08-10T05:58:09.466Z,96206.03
2022-08-10T06:01:12.875Z,96203.16
2022-08-10T06:04:17.912Z,96203.03
2022-08-10T06:07:21.912Z,96205.22
2022-08-10T06:10:32.804Z,96211.34
2022-08-10T06:13:59.652Z,96208.44
2022-08-10T06:16:59.222Z,96207.91
2022-08-10T06:20:01.268Z,96207.69
2022-08-10T06:23:03.895Z,96200.28
2022-08-10T06:26:11.887Z,96208.13
2022-08-10T06:29:16.771Z,96212.25
2022-08-10T06:32:18.835Z,96210.81
2022-08-10T06:35:20.757Z,96211.94
2022-08-10T06:38:23.968Z,96215.34
2022-08-10T06:42:01.342Z,96216.47
2022-08-10T06:44:55.609Z,96231.88
2022-08-10T06:48:00.350Z,96212.88
2022-08-10T06:51:03.413Z,96216.78
2022-08-10T06:54:06.832Z,96219.75
2022-08-10T06:57:18.671Z,96217.38
2022-08-10T07:00:20.951Z,96220.03
2022-08-10T07:03:26.343Z,96217.91
2022-08-10T07:06:28.582Z,96217.97
2022-08-10T07:09:31.946Z,96216.88
2022-08-10T07:12:37.000Z,96213.84
2022-08-10T07:15:59.661Z,96219.91
2022-08-10T07:19:01.407Z,96223.75
2022-08-10T07:22:03.676Z,96215.84
2022-08-10T07:25:06.896Z,96211.28
2022-08-10T07:28:10.837Z,96210.75
2022-08-10T07:31:54.487Z,96214.25
2022-08-10T07:34:36.101Z,96217.47
2022-08-10T07:37:38.356Z,96218.59
2022-08-10T07:40:42.486Z,96224.28
2022-08-10T07:43:46.824Z,96214.75
2022-08-10T07:46:50.353Z,96210.53
2022-08-10T07:49:52.439Z,96213.28
2022-08-10T07:52:55.831Z,96216.59
2022-08-10T07:56:04.731Z,96215.00
2022-08-10T07:59:17.522Z,96209.88
2022-08-10T08:02:23.545Z,96202.66
2022-08-10T08:05:55.075Z,96203.19
2022-08-10T08:08:48.680Z,96205.59
2022-08-10T08:11:51.631Z,96211.63
2022-08-10T08:14:55.622Z,96202.56
2022-08-10T08:18:00.725Z,96215.84
2022-08-10T08:21:03.091Z,96209.53
2022-08-10T08:24:32.278Z,96209.56
2022-08-10T08:27:36.182Z,96204.28
2022-08-10T08:30:48.810Z,96211.75
2022-08-10T08:33:51.103Z,96215.03
2022-08-10T08:36:57.333Z,96210.59
2022-08-10T08:40:01.882Z,96209.91
2022-08-10T08:43:22.196Z,96205.97
2022-08-10T08:46:40.589Z,96212.25
2022-08-10T08:50:07.585Z,96216.34
2022-08-10T08:53:21.861Z,96208.03
2022-08-10T08:56:28.610Z,96205.81
2022-08-10T08:59:37.331Z,96220.84
2022-08-10T09:02:55.118Z,96207.25
2022-08-10T09:06:04.267Z,96192.94
2022-08-10T09:09:15.737Z,96205.28
2022-08-10T09:12:26.638Z,96208.97
2022-08-10T09:15:39.596Z,96204.03
2022-08-10T09:18:53.220Z,96201.03
2022-08-10T09:22:13.387Z,96210.03
2022-08-10T09:25:21.970Z,96202.63
2022-08-10T09:28:26.855Z,96197.28
2022-08-10T09:31:35.758Z,96201.00
2022-08-10T09:36:20.697Z,96198.09
2022-08-10T09:38:18.060Z,96199.75
2022-08-10T09:41:25.209Z,96196.66
2022-08-10T09:44:32.619Z,96192.41
2022-08-10T09:48:01.167Z,96181.09
2022-08-10T09:54:36.074Z,96187.50
2022-08-10T09:57:46.059Z,96186.28
2022-08-10T10:00:52.812Z,96184.81
2022-08-10T10:03:59.706Z,96181.66
2022-08-10T10:07:05.621Z,96194.41
2022-08-10T10:10:09.249Z,96180.34
2022-08-10T10:13:17.504Z,96178.06
2022-08-10T10:16:37.008Z,96179.84
2022-08-10T10:19:48.733Z,96184.53
2022-08-10T10:22:56.603Z,96182.00
2022-08-10T10:26:15.902Z,96178.59
2022-08-10T10:29:57.193Z,96176.06
2022-08-10T10:32:57.177Z,96169.91
2022-08-10T10:35:59.652Z,96175.19
2022-08-10T10:39:02.876Z,96162.50
2022-08-10T10:42:14.750Z,96160.09
2022-08-10T10:45:28.849Z,96166.41
2022-08-10T10:48:36.331Z,96164.19
2022-08-10T10:51:41.574Z,96157.81
2022-08-10T10:54:50.490Z,96167.28
2022-08-10T10:57:58.395Z,96167.28
2022-08-10T11:01:06.152Z,96157.84
2022-08-10T11:04:14.443Z,96150.66
2022-08-10T11:07:22.886Z,96162.22
2022-08-10T11:10:38.560Z,96151.69
2022-08-10T11:14:24.895Z,96156.75
2022-08-10T11:17:22.329Z,96147.44
2022-08-10T11:20:26.458Z,96136.44
2022-08-10T11:23:31.678Z,96145.66
2022-08-10T11:26:36.637Z,96144.28
2022-08-10T11:29:42.589Z,96149.94
2022-08-10T11:32:54.836Z,96142.50
2022-08-10T11:36:00.225Z,96142.88
2022-08-10T11:39:18.946Z,96140.44
2022-08-10T11:42:33.425Z,96129.38
2022-08-10T11:45:51.368Z,96120.66
2022-08-10T11:49:03.547Z,96128.00
2022-08-10T11:52:08.941Z,96119.56
2022-08-10T11:55:12.868Z,96128.25
2022-08-10T11:58:21.264Z,96125.63
2022-08-10T12:01:26.417Z,96125.78
2022-08-10T12:04:28.970Z,96127.00
2022-08-10T12:08:54.850Z,96114.13
2022-08-10T12:10:54.338Z,96118.66
2022-08-10T12:14:20.691Z,96122.25
2022-08-10T12:17:25.172Z,96114.03
2022-08-10T12:20:28.930Z,96115.25
2022-08-10T12:23:39.286Z,96105.91
2022-08-10T12:26:44.978Z,96107.34
2022-08-10T12:29:50.586Z,96104.72
2022-08-10T12:32:56.917Z,96104.91
2022-08-10T12:36:17.878Z,96110.44
2022-08-10T12:39:22.174Z,96098.88
2022-08-10T12:42:38.715Z,96100.72
2022-08-10T12:45:50.813Z,96096.16
2022-08-10T12:48:56.989Z,96104.59
2022-08-10T12:52:03.235Z,96091.56
2022-08-10T12:55:05.372Z,96091.97
2022-08-10T12:58:58.964Z,96087.97
2022-08-10T13:02:10.427Z,96085.81
2022-08-10T13:04:55.911Z,96085.47
2022-08-10T13:08:03.723Z,96090.38
2022-08-10T13:12:39.149Z,96089.53
2022-08-10T13:14:48.006Z,96085.06
2022-08-10T13:17:53.176Z,96064.56
2022-08-10T13:21:00.175Z,96085.88
2022-08-10T13:24:05.329Z,96070.03
2022-08-10T13:27:24.706Z,96068.56
2022-08-10T13:30:33.657Z,96064.84
2022-08-10T13:34:39.448Z,96068.38
2022-08-10T13:37:09.301Z,96056.91
2022-08-10T13:40:11.586Z,96056.81
2022-08-10T13:43:15.513Z,96049.97
2022-08-10T13:46:22.243Z,96053.53
2022-08-10T13:49:27.235Z,96041.66
2022-08-10T13:52:29.670Z,96040.28
2022-08-10T13:55:53.420Z,96036.06
2022-08-10T13:58:53.832Z,96041.22
2022-08-10T14:01:56.221Z,96040.22
2022-08-10T14:04:59.776Z,96033.84
2022-08-10T14:08:02.740Z,96039.22
2022-08-10T14:11:10.936Z,96038.97
2022-08-10T14:14:15.075Z,96041.06
2022-08-10T14:17:18.877Z,96043.59
2022-08-10T14:20:26.424Z,96038.28
2022-08-10T14:23:28.048Z,96033.28
2022-08-10T14:26:30.291Z,96030.16
2022-08-10T14:29:33.227Z,96030.34
2022-08-10T14:32:41.824Z,96021.41
2022-08-10T14:36:21.464Z,96028.97
2022-08-10T14:39:08.755Z,96017.38
2022-08-10T14:42:24.103Z,96013.41
2022-08-10T14:45:30.639Z,96024.31
2022-08-10T14:48:33.873Z,96023.94
2022-08-10T14:51:44.306Z,96016.69
2022-08-10T14:54:48.787Z,96020.00
2022-08-10T14:58:16.944Z,96014.66
2022-08-10T15:01:17.826Z,96012.66
2022-08-10T15:04:22.903Z,96018.69
2022-08-10T15:07:27.550Z,96006.94
2022-08-10T15:10:29.419Z,96007.97
2022-08-10T15:13:34.407Z,96009.31
2022-08-10T15:16:37.263Z,96007.50
2022-08-10T15:20:04.311Z,95999.47
2022-08-10T15:23:06.073Z,96001.94
2022-08-10T15:26:11.017Z,95998.50
2022-08-10T15:29:23.762Z,95998.66
2022-08-10T15:32:33.522Z,95992.69
2022-08-10T15:35:36.559Z,95985.75
2022-08-10T15:38:41.626Z,95985.75
2022-08-10T15:41:57.621Z,95973.81
2022-08-10T15:45:01.615Z,95975.56
2022-08-10T15:48:05.901Z,95978.31
2022-08-10T15:51:12.525Z,95972.38
2022-08-10T15:54:33.600Z,95968.25
2022-08-10T15:57:39.952Z,95972.38
2022-08-10T16:00:45.885Z,95960.63
2022-08-10T16:03:54.608Z,95967.59
2022-08-10T16:06:59.197Z,95960.63
2022-08-10T16:10:23.637Z,95955.56
2022-08-10T16:13:50.133Z,95958.28
2022-08-10T16:16:55.199Z,95949.28
2022-08-10T16:19:57.714Z,95942.03
2022-08-10T16:23:00.683Z,95946.78
2022-08-10T16:26:15.149Z,95940.03
2022-08-10T16:29:19.894Z,95936.78
2022-08-10T16:32:22.240Z,95944.50
2022-08-10T16:35:24.136Z,95938.25
2022-08-10T16:38:26.304Z,95933.97
2022-08-10T16:42:04.155Z,95935.22
2022-08-10T16:44:52.997Z,95929.88
2022-08-10T16:47:56.037Z,95929.50
2022-08-10T16:50:59.382Z,95934.53
2022-08-10T16:54:01.694Z,95928.25
2022-08-10T16:57:05.708Z,95932.69
2022-08-10T17:00:08.188Z,95928.63
2022-08-10T17:04:04.437Z,95932.78
2022-08-10T17:06:35.146Z,95936.13
2022-08-10T17:09:38.532Z,95933.03
2022-08-10T17:12:43.033Z,95936.66
2022-08-10T17:15:49.052Z,95935.72
2022-08-10T17:18:51.382Z,95928.38
2022-08-10T17:21:55.297Z,95932.97
2022-08-10T17:24:59.898Z,95932.19
2022-08-10T17:28:09.677Z,95931.41
2022-08-10T17:31:51.587Z,95932.41
2022-08-10T17:34:40.339Z,95933.41
2022-08-10T17:37:44.765Z,95943.97
2022-08-10T17:40:48.162Z,95944.84
2022-08-10T17:44:02.509Z,95946.00
2022-08-10T17:47:10.934Z,95948.53
2022-08-10T17:50:13.293Z,95939.84
2022-08-10T17:53:16.220Z,95937.66
2022-08-10T17:56:19.628Z,95935.81
2022-08-10T17:59:24.595Z,95937.91
2022-08-10T18:02:27.292Z,95942.81
2022-08-10T18:05:30.783Z,95944.72
2022-08-10T18:08:34.404Z,95948.81
2022-08-10T18:11:41.622Z,95949.59
2022-08-10T18:14:45.414Z,95943.50
2022-08-10T18:17:48.834Z,95948.44
2022-08-10T18:20:51.853Z,95944.63
2022-08-10T18:23:54.134Z,95946.22
2022-08-10T18:26:56.590Z,95948.47
2022-08-10T18:30:03.714Z,95946.66
2022-08-10T18:33:09.281Z,95948.66
2022-08-10T18:36:11.981Z,95951.78
2022-08-10T18:39:14.808Z,95960.09
2022-08-10T18:42:19.567Z,95956.31
2022-08-10T18:45:24.274Z,95963.34
2022-08-10T18:48:33.173Z,95961.59
2022-08-10T18:51:46.688Z,95963.69
2022-08-10T18:54:49.864Z,95973.38
2022-08-10T18:58:12.529Z,95973.56
2022-08-10T19:01:32.429Z,95972.22
2022-08-10T19:04:43.441Z,95976.69
2022-08-10T19:08:04.388Z,95973.91
2022-08-10T19:11:11.766Z,95975.56
2022-08-10T19:14:16.434Z,95983.09
2022-08-10T19:17:23.777Z,95980.19
2022-08-10T19:20:30.731Z,95983.72
2022-08-10T19:23:37.849Z,95978.19
2022-08-10T19:26:45.956Z,95978.03
2022-08-10T19:30:08.860Z,95979.09
2022-08-10T19:33:22.286Z,95976.91
2022-08-10T19:36:29.596Z,95975.78
2022-08-10T19:39:50.356Z,95977.47
2022-08-10T19:42:56.187Z,95979.03
2022-08-10T19:46:03.215Z,95981.38
2022-08-10T19:49:13.221Z,95976.22
2022-08-10T19:52:19.388Z,95980.03
2022-08-10T19:55:25.386Z,95972.19
2022-08-10T19:58:32.519Z,95972.28
2022-08-10T20:01:55.287Z,95972.78
2022-08-10T20:05:02.859Z,95970.97
2022-08-10T20:08:07.556Z,95972.19
2022-08-10T20:11:11.184Z,95972.56
2022-08-10T20:14:36.032Z,95971.59
2022-08-10T20:17:51.397Z,95970.94
2022-08-10T20:20:59.472Z,95968.63
2022-08-10T20:24:04.398Z,95971.13
2022-08-10T20:27:59.441Z,95978.06
2022-08-10T20:30:34.655Z,95970.94
2022-08-10T20:33:40.522Z,95975.56
2022-08-10T20:36:48.253Z,95971.09
2022-08-10T20:39:55.434Z,95973.31
2022-08-10T20:43:03.613Z,95972.50
2022-08-10T20:46:09.478Z,95978.50
2022-08-10T20:49:16.172Z,95972.38
2022-08-10T20:52:20.820Z,95968.44
2022-08-10T20:55:23.304Z,95969.44
2022-08-10T20:58:37.870Z,95961.59
2022-08-10T21:02:06.229Z,95959.47
2022-08-10T21:05:15.873Z,95956.47
2022-08-10T21:08:22.827Z,95957.91
2022-08-10T21:11:28.499Z,95958.13
2022-08-10T21:17:39.007Z,95959.59
2022-08-10T21:20:54.113Z,95953.47
2022-08-10T21:24:01.595Z,95949.50
2022-08-10T21:27:12.955Z,95954.03
2022-08-10T21:30:17.373Z,95948.09
2022-08-10T21:33:25.462Z,95952.94
2022-08-10T21:36:30.656Z,95948.09
2022-08-10T21:39:44.349Z,95962.25
2022-08-10T21:42:49.728Z,95954.34
2022-08-10T21:45:59.161Z,95958.59
2022-08-10T21:49:03.747Z,95959.59
2022-08-10T21:52:09.289Z,95951.88
2022-08-10T21:55:21.651Z,95951.69
2022-08-10T21:58:27.509Z,95953.88
2022-08-10T22:01:39.161Z,95957.59
2022-08-10T22:04:45.509Z,95954.19
2022-08-10T22:07:50.497Z,95958.69
2022-08-10T22:10:56.398Z,95950.22
2022-08-10T22:14:01.732Z,95950.69
2022-08-10T22:17:06.899Z,95954.97
2022-08-10T22:20:31.235Z,95951.31
2022-08-10T22:23:43.145Z,95951.22
2022-08-10T22:27:01.266Z,95951.22
2022-08-10T22:30:04.176Z,95943.53
2022-08-10T22:33:23.791Z,95939.28
2022-08-10T22:36:43.326Z,95932.41
2022-08-10T22:40:07.208Z,95930.66
2022-08-10T22:43:35.460Z,95934.63
2022-08-10T22:46:40.832Z,95936.47
2022-08-10T22:49:42.438Z,95930.41
2022-08-10T22:53:01.898Z,95936.88
2022-08-10T22:56:06.093Z,95924.56
2022-08-10T22:59:09.880Z,95929.09
2022-08-10T23:02:13.963Z,95939.38
2022-08-10T23:05:16.732Z,95938.97
2022-08-10T23:08:30.487Z,95938.81
2022-08-10T23:11:35.625Z,95947.22
2022-08-10T23:14:41.561Z,95947.75
2022-08-10T23:18:03.186Z,95939.72
2022-08-10T23:21:06.517Z,95943.81
2022-08-10T23:24:09.336Z,95932.41
2022-08-10T23:27:13.245Z,95937.13
2022-08-10T23:30:36.291Z,95936.88
2022-08-10T23:33:38.864Z,95935.59
2022-08-10T23:36:41.172Z,95935.91
2022-08-10T23:39:44.448Z,95936.84
2022-08-10T23:42:48.646Z,95930.56
2022-08-10T23:45:54.423Z,95930.72
2022-08-10T23:48:58.370Z,95934.69
2022-08-10T23:52:00.735Z,95927.81
2022-08-10T23:55:04.758Z,95930.22
2022-08-10T23:58:07.357Z,95928.41
